createdAt,value
2023-03-22T00:03:12.670Z,100226.59
2023-03-22T00:08:15.734Z,100222.38
2023-03-22T00:13:17.378Z,100216.38
2023-03-22T00:18:19.182Z,100212.59
2023-03-22T00:23:23.464Z,100209.56
2023-03-22T00:28:25.168Z,100208.38
2023-03-22T00:33:27.859Z,100206.16
2023-03-22T00:38:41.618Z,100195.78
2023-03-22T00:43:44.962Z,100195.44
2023-03-22T00:48:46.854Z,100190.22
2023-03-22T00:53:49.981Z,100184.31
2023-03-22T00:58:51.777Z,100178.16
2023-03-22T01:03:53.547Z,100186.97
2023-03-22T01:08:56.775Z,100170.94
2023-03-22T01:13:58.726Z,100158.97
2023-03-22T01:19:00.509Z,100156.44
2023-03-22T01:24:03.961Z,100144.47
2023-03-22T01:29:05.828Z,100142.16
2023-03-22T01:34:07.512Z,100136.09
2023-03-22T01:39:10.816Z,100137.75
2023-03-22T01:44:15.190Z,100131.22
2023-03-22T01:49:21.646Z,100134.41
2023-03-22T01:54:30.416Z,100116.47
2023-03-22T01:59:32.403Z,100118.38
2023-03-22T02:04:35.915Z,100110.78
2023-03-22T02:09:39.069Z,100113.66
2023-03-22T02:14:56.297Z,100103.88
2023-03-22T02:20:34.118Z,100114.56
2023-03-22T02:26:05.073Z,100109.53
2023-03-22T02:31:30.023Z,100104.53
2023-03-22T02:37:03.576Z,100111.13
2023-03-22T02:42:21.025Z,100095.28
2023-03-22T02:47:29.092Z,100100.31
2023-03-22T02:52:37.693Z,100101.91
2023-03-22T02:57:48.026Z,100100.09
2023-03-22T03:02:53.639Z,100093.59
2023-03-22T03:07:59.492Z,100081.34
2023-03-22T03:13:02.780Z,100083.75
2023-03-22T03:18:18.963Z,100078.84
2023-03-22T03:23:28.721Z,100072.81
2023-03-22T03:28:38.771Z,100056.34
2023-03-22T03:33:49.061Z,100060.78
2023-03-22T03:38:54.480Z,100058.25
2023-03-22T03:43:58.957Z,100045.66
2023-03-22T03:49:04.048Z,100047.72
2023-03-22T03:54:06.468Z,100045.03
2023-03-22T03:59:09.508Z,100045.59
2023-03-22T04:04:11.275Z,100049.38
2023-03-22T04:09:13.026Z,100047.91
2023-03-22T04:14:16.309Z,100045.78
2023-03-22T04:19:18.592Z,100045.19
2023-03-22T04:24:20.658Z,100048.75
2023-03-22T04:29:23.720Z,100047.81
2023-03-22T04:34:25.550Z,100044.38
2023-03-22T04:39:27.289Z,100052.28
2023-03-22T04:44:30.394Z,100054.72
2023-03-22T04:49:32.261Z,100059.66
2023-03-22T04:54:34.271Z,100057.56
2023-03-22T04:59:37.358Z,100055.69
2023-03-22T05:04:39.062Z,100050.00
2023-03-22T05:09:40.978Z,100047.31
2023-03-22T05:14:44.173Z,100046.50
2023-03-22T05:19:45.960Z,100054.81
2023-03-22T05:24:47.772Z,100032.41
2023-03-22T05:29:50.775Z,100031.78
2023-03-22T05:34:52.588Z,100028.31
2023-03-22T05:39:54.227Z,100018.03
2023-03-22T05:44:57.460Z,100032.22
2023-03-22T05:49:59.207Z,100033.59
2023-03-22T05:55:01.151Z,100050.25
2023-03-22T06:00:05.027Z,100041.41
2023-03-22T06:05:07.678Z,100032.06
2023-03-22T06:10:12.615Z,100038.41
2023-03-22T06:15:15.884Z,100058.78
2023-03-22T06:20:19.886Z,100046.81
2023-03-22T06:25:21.556Z,100047.78
2023-03-22T06:30:24.976Z,100055.31
2023-03-22T06:35:26.884Z,100057.34
2023-03-22T06:40:28.798Z,100056.13
2023-03-22T06:45:31.921Z,100064.97
2023-03-22T06:50:33.568Z,100062.38
2023-03-22T06:55:35.378Z,100043.06
2023-03-22T07:00:39.344Z,100044.81
2023-03-22T07:05:41.330Z,100044.50
2023-03-22T07:10:43.145Z,100027.97
2023-03-22T07:15:46.890Z,100040.00
2023-03-22T07:20:48.782Z,100030.84
2023-03-22T07:25:50.516Z,100026.03
2023-03-22T07:31:01.104Z,100035.16
2023-03-22T07:36:02.850Z,100036.63
2023-03-22T07:41:05.161Z,100033.41
2023-03-22T07:46:08.520Z,100028.22
2023-03-22T07:51:10.219Z,100029.81
2023-03-22T07:56:11.986Z,100032.53
2023-03-22T08:01:15.149Z,100028.09
2023-03-22T08:06:17.274Z,100028.53
2023-03-22T08:11:18.918Z,100019.16
2023-03-22T08:16:22.103Z,100018.69
2023-03-22T08:21:23.792Z,100013.69
2023-03-22T08:26:25.520Z,100008.41
2023-03-22T08:31:30.398Z,100001.94
2023-03-22T08:36:32.065Z,99988.22
2023-03-22T08:41:33.911Z,99982.00
2023-03-22T08:52:00.472Z,99985.34
2023-03-22T08:57:02.329Z,99975.19
2023-03-22T09:02:04.147Z,99965.03
2023-03-22T09:07:07.295Z,99963.19
2023-03-22T09:12:09.646Z,99943.00
2023-03-22T09:17:11.301Z,99948.78
2023-03-22T09:22:14.574Z,99947.25
2023-03-22T09:27:16.349Z,99939.34
2023-03-22T09:32:18.618Z,99945.50
2023-03-22T09:37:21.629Z,99942.44
2023-03-22T09:42:34.920Z,99946.88
2023-03-22T09:47:44.704Z,99931.19
2023-03-22T09:52:49.559Z,99938.88
2023-03-22T09:58:01.789Z,99942.44
2023-03-22T10:03:14.796Z,99946.59
2023-03-22T10:08:29.947Z,99951.81
2023-03-22T10:13:36.766Z,99951.47
2023-03-22T10:18:41.592Z,99937.06
2023-03-22T10:23:48.059Z,99944.88
2023-03-22T10:28:56.941Z,99941.19
2023-03-22T10:34:02.166Z,99946.13
2023-03-22T10:39:14.429Z,99930.63
2023-03-22T10:44:19.026Z,99926.47
2023-03-22T10:49:27.121Z,99917.53
2023-03-22T10:54:31.916Z,99902.53
2023-03-22T10:59:45.132Z,99916.66
2023-03-22T11:04:47.973Z,99904.22
2023-03-22T11:09:57.552Z,99898.75
2023-03-22T11:14:59.386Z,99905.25
2023-03-22T11:20:04.569Z,99905.41
2023-03-22T11:25:15.780Z,99900.25
2023-03-22T11:30:21.620Z,99910.72
2023-03-22T11:35:25.212Z,99909.22
2023-03-22T11:40:30.655Z,99906.06
2023-03-22T11:45:36.697Z,99903.41
2023-03-22T11:50:42.402Z,99894.47
2023-03-22T11:55:48.476Z,99903.06
2023-03-22T12:00:52.125Z,99901.41
2023-03-22T12:05:54.270Z,99906.25
2023-03-22T12:11:01.902Z,99889.31
2023-03-22T12:16:06.447Z,99892.13
2023-03-22T12:21:09.961Z,99891.31
2023-03-22T12:26:17.254Z,99897.09
2023-03-22T12:31:22.756Z,99908.72
2023-03-22T12:36:29.934Z,99888.28
2023-03-22T12:41:37.281Z,99878.50
2023-03-22T12:46:48.377Z,99868.22
2023-03-22T12:51:54.133Z,99867.19
2023-03-22T12:56:57.604Z,99875.84
2023-03-22T13:02:05.010Z,99858.41
2023-03-22T13:07:14.352Z,99850.59
2023-03-22T13:12:32.593Z,99843.97
2023-03-22T13:17:40.542Z,99830.19
2023-03-22T13:23:09.414Z,99832.84
2023-03-22T13:28:24.372Z,99844.13
2023-03-22T13:38:42.990Z,99832.53
2023-03-22T13:43:48.632Z,99830.34
2023-03-22T13:48:54.509Z,99830.84
2023-03-22T13:54:01.739Z,99821.88
2023-03-22T13:59:04.922Z,99821.88
2023-03-22T14:04:11.117Z,99815.03
2023-03-22T14:09:22.759Z,99810.84
2023-03-22T14:14:29.545Z,99812.75
2023-03-22T14:19:34.300Z,99796.31
